Time;durP1;ratioP1;P1;durP2;ratioP2;P2;SDS_P1;SDS_P2;PMS_P1;PMS_P2;Temp;Humidity;BMP_temperature;BMP_pressure;BME280_temperature;BME280_humidity;BME280_pressure;Samples;Min_cycle;Max_cycle;Signal;HPM_P1;HPM_P2
2022/05/03 00:00:20;;;;;;;;;;;;;;;;;;4998266;28;19939;-58
2022/05/03 00:02:51;;;;;;;;;;;;;;;;;;5013099;28;19917;-58
2022/05/03 00:05:18;;;;;;;;;;;;;;;;;;5034307;28;19967;-58
2022/05/03 00:07:46;;;;;;;;;;;;;;;;;;4996891;28;20017;-57
2022/05/03 00:10:12;;;;;;;;;;;;;;;;;;5035279;28;19999;-58
2022/05/03 00:12:40;;;;;;;;;;;;;;;;;;5015336;28;20811;-57
2022/05/03 00:15:05;;;;;;;;;;;;;;;;;;5013887;28;19919;-58
2022/05/03 00:17:31;;;;;;;;;;;;;;;;;;5035105;28;21141;-58
2022/05/03 00:19:58;;;;;;;;;;;;;;;;;;5015156;28;19960;-58
2022/05/03 00:22:27;;;;;;;;;;;;;;;;;;5035902;28;20099;-59
2022/05/03 00:24:54;;;;;;;;;;;;;;;;;;5017117;28;19917;-58
2022/05/03 00:27:24;;;;;;;;;;;;;;;;;;5011968;28;20558;-58
2022/05/03 00:29:52;;;;;;;;;;;;;;;;;;5030983;28;19979;-58
2022/05/03 00:32:17;;;;;;;;;;;;;;;;;;5034398;28;19956;-58
2022/05/03 00:34:45;;;;;;;;;;;;;;;;;;5012680;28;19921;-58
2022/05/03 00:37:13;;;;;;;;;;;;;;;;;;5031308;28;19963;-58
2022/05/03 00:39:39;;;;;;;;;;;;;;;;;;5011964;28;20657;-58
2022/05/03 00:42:04;;;;;;;;;;;;;;;;;;5011786;28;19924;-58
2022/05/03 00:47:14;;;;;;;;;;;;;;;;;;5034244;28;19932;-58
2022/05/03 00:49:40;;;;;;;;;;;;;;;;;;5013847;28;19921;-58
2022/05/03 00:52:06;;;;;;;;;;;;;;;;;;5033876;28;19959;-58
2022/05/03 00:54:31;;;;;;;;;;;;;;;;;;5016025;28;19916;-58
2022/05/03 00:56:59;;;;;;;;;;;;;;;;;;4999456;28;19934;-58
2022/05/03 00:59:24;;;;;;;;;;;;;;;;;;5014630;28;19925;-59
2022/05/03 01:01:49;;;;;;;;;;;;;;;;;;5034131;28;19967;-59
2022/05/03 01:04:15;;;;;;;;;;;;;;;;;;5014637;28;19928;-60
2022/05/03 01:06:40;;;;;;;;;;;;;;;;;;5035127;28;19927;-58
2022/05/03 01:09:05;;;;;;;;;;;;;;;;;;5034455;28;19963;-58
2022/05/03 01:11:34;;;;;;;;;;;;;;;;;;5034819;28;20435;-58
2022/05/03 01:14:00;;;;;;;;;;;;;;;;;;5034681;28;19921;-58
2022/05/03 01:16:26;;;;;;;;;;;;;;;;;;5034270;28;19936;-58
2022/05/03 01:18:51;;;;;;;;;;;;;;;;;;5035226;28;20047;-58
2022/05/03 01:21:21;;;;;;;;;;;;;;;;;;5034854;28;20468;-58
2022/05/03 01:23:46;;;;;;;;;;;;;;;;;;5034487;28;19927;-56
2022/05/03 01:26:17;;;;;;;;;;;;;;;;;;5015075;28;20920;-58
2022/05/03 01:28:45;;;;;;;;;;;;;;;;;;4998024;28;19925;-58
2022/05/03 01:31:11;;;;;;;;;;;;;;;;;;5032500;28;19940;-58
2022/05/03 01:33:39;;;;;;;;;;;;;;;;;;4998026;28;19927;-57
2022/05/03 01:36:05;;;;;;;;;;;;;;;;;;5012631;28;20327;-57
2022/05/03 01:38:30;;;;;;;;;;;;;;;;;;5012121;28;19925;-59
2022/05/03 01:40:56;;;;;;;;;;;;;;;;;;5013836;28;19942;-58
2022/05/03 01:43:22;;;;;;;;;;;;;;;;;;5033785;28;19916;-57
2022/05/03 01:45:47;;;;;;;;;;;;;;;;;;5033139;28;19917;-58
2022/05/03 01:48:13;;;;;;;;;;;;;;;;;;5034438;28;19951;-58
2022/05/03 01:50:38;;;;;;;;;;;;;;;;;;5034834;28;19985;-59
2022/05/03 01:53:06;;;;;;;;;;;;;;;;;;4996693;28;19916;-58
2022/05/03 01:55:49;;;;;;;;;;;;;;;;;;4952606;28;19918;-58
2022/05/03 01:58:14;;;;;;;;;;;;;;;;;;4951219;28;19926;-57
2022/05/03 02:00:40;;;;;;;;;;;;;;;;;;4950913;28;19922;-58
2022/05/03 02:03:05;;;;;;;;;;;;;;;;;;4917899;28;19921;-58
2022/05/03 02:05:30;;;;;;;;;;;;;;;;;;4948176;28;20554;-58
2022/05/03 02:07:55;;;;;;;;;;;;;;;;;;4948298;28;19926;-57
2022/05/03 02:10:21;;;;;;;;;;;;;;;;;;4934626;28;20082;-58
2022/05/03 02:12:51;;;;;;;;;;;;;;;;;;4953627;28;19945;-58
2022/05/03 02:15:16;;;;;;;;;;;;;;;;;;4936016;28;19925;-58
2022/05/03 02:17:42;;;;;;;;;;;;;;;;;;4936678;28;19925;-58
2022/05/03 02:20:11;;;;;;;;;;;;;;;;;;4954384;28;19933;-58
2022/05/03 02:22:36;;;;;;;;;;;;;;;;;;4954311;28;20009;-58
2022/05/03 02:25:02;;;;;;;;;;;;;;;;;;4937528;28;19933;-59
2022/05/03 02:27:27;;;;;;;;;;;;;;;;;;4996668;28;19952;-58
2022/05/03 02:29:54;;;;;;;;;;;;;;;;;;5033132;28;19952;-58
2022/05/03 02:32:20;;;;;;;;;;;;;;;;;;5033866;28;20008;-59
2022/05/03 02:34:48;;;;;;;;;;;;;;;;;;4998433;28;19952;-58
2022/05/03 02:37:13;;;;;;;;;;;;;;;;;;5033760;28;19924;-58
2022/05/03 02:39:39;;;;;;;;;;;;;;;;;;5033189;28;19927;-58
2022/05/03 02:42:07;;;;;;;;;;;;;;;;;;5033391;28;20487;-59
2022/05/03 02:44:32;;;;;;;;;;;;;;;;;;5034230;28;20504;-58
2022/05/03 02:46:57;;;;;;;;;;;;;;;;;;5032854;28;19920;-58
2022/05/03 02:49:23;;;;;;;;;;;;;;;;;;4997967;28;19967;-58
2022/05/03 02:51:50;;;;;;;;;;;;;;;;;;5000963;28;20015;-58
2022/05/03 02:54:15;;;;;;;;;;;;;;;;;;5016140;28;20303;-58
2022/05/03 02:56:41;;;;;;;;;;;;;;;;;;5016066;28;20407;-58
2022/05/03 02:59:07;;;;;;;;;;;;;;;;;;5033543;28;19925;-58
2022/05/03 03:01:47;;;;;;;;;;;;;;;;;;5013816;28;19920;-58
2022/05/03 03:04:13;;;;;;;;;;;;;;;;;;5034465;28;19956;-59
2022/05/03 03:06:38;;;;;;;;;;;;;;;;;;5017342;28;19916;-58
2022/05/03 03:09:04;;;;;;;;;;;;;;;;;;4997996;28;19925;-58
2022/05/03 03:11:34;;;;;;;;;;;;;;;;;;5021301;28;19921;-58
2022/05/03 03:14:00;;;;;;;;;;;;;;;;;;5019602;28;20480;-57
2022/05/03 03:16:28;;;;;;;;;;;;;;;;;;5001345;28;19951;-58
2022/05/03 03:18:53;;;;;;;;;;;;;;;;;;5019870;28;20050;-58
2022/05/03 03:21:19;;;;;;;;;;;;;;;;;;5020319;28;19960;-58
2022/05/03 03:23:44;;;;;;;;;;;;;;;;;;4985475;28;19920;-58
2022/05/03 03:26:12;;;;;;;;;;;;;;;;;;5018866;28;20348;-59
2022/05/03 03:28:38;;;;;;;;;;;;;;;;;;5002247;28;19927;-58
2022/05/03 03:31:03;;;;;;;;;;;;;;;;;;5018966;28;19983;-58
2022/05/03 03:33:32;;;;;;;;;;;;;;;;;;5001279;28;19932;-58
2022/05/03 03:35:57;;;;;;;;;;;;;;;;;;5001478;28;19921;-58
2022/05/03 03:38:27;;;;;;;;;;;;;;;;;;5019414;28;20435;-59
2022/05/03 03:40:56;;;;;;;;;;;;;;;;;;5018345;28;19917;-57
2022/05/03 03:43:24;;;;;;;;;;;;;;;;;;5000638;28;19936;-60
2022/05/03 03:45:49;;;;;;;;;;;;;;;;;;5018759;28;20135;-58
2022/05/03 03:48:18;;;;;;;;;;;;;;;;;;5000586;28;19921;-58
2022/05/03 03:50:43;;;;;;;;;;;;;;;;;;4984701;28;19946;-59
2022/05/03 03:53:08;;;;;;;;;;;;;;;;;;5017159;28;19921;-59
2022/05/03 03:55:36;;;;;;;;;;;;;;;;;;4985578;28;19932;-59
2022/05/03 03:58:01;;;;;;;;;;;;;;;;;;4999523;28;19920;-59
2022/05/03 04:00:27;;;;;;;;;;;;;;;;;;4999432;28;20388;-59
2022/05/03 04:02:56;;;;;;;;;;;;;;;;;;5000004;28;19921;-59
2022/05/03 04:05:24;;;;;;;;;;;;;;;;;;5007737;28;20613;-59
2022/05/03 04:07:50;;;;;;;;;;;;;;;;;;5001421;28;19948;-57
2022/05/03 04:10:20;;;;;;;;;;;;;;;;;;5010961;28;20820;-59
2022/05/03 04:12:48;;;;;;;;;;;;;;;;;;5016185;28;19924;-59
2022/05/03 04:15:18;;;;;;;;;;;;;;;;;;5016548;28;19920;-60
2022/05/03 04:17:46;;;;;;;;;;;;;;;;;;5034794;28;20047;-59
2022/05/03 04:20:15;;;;;;;;;;;;;;;;;;5036430;28;19981;-59
2022/05/03 04:22:40;;;;;;;;;;;;;;;;;;5024939;28;19921;-60
2022/05/03 04:25:08;;;;;;;;;;;;;;;;;;5003470;28;19962;-59
2022/05/03 04:27:35;;;;;;;;;;;;;;;;;;5034710;28;19958;-59
2022/05/03 04:30:05;;;;;;;;;;;;;;;;;;5034205;28;19925;-59
2022/05/03 04:32:31;;;;;;;;;;;;;;;;;;5015210;28;19924;-58
2022/05/03 04:34:59;;;;;;;;;;;;;;;;;;5032920;28;20427;-59
2022/05/03 04:37:24;;;;;;;;;;;;;;;;;;5013567;28;19950;-59
2022/05/03 04:39:53;;;;;;;;;;;;;;;;;;5034926;28;19921;-60
2022/05/03 04:42:18;;;;;;;;;;;;;;;;;;5032150;28;20634;-59
2022/05/03 04:44:46;;;;;;;;;;;;;;;;;;5016597;28;20055;-59
2022/05/03 04:47:11;;;;;;;;;;;;;;;;;;5033291;28;19939;-60
2022/05/03 04:49:37;;;;;;;;;;;;;;;;;;5009866;28;19920;-60
2022/05/03 04:52:02;;;;;;;;;;;;;;;;;;5015574;28;19964;-59
2022/05/03 04:54:28;;;;;;;;;;;;;;;;;;5006095;28;19920;-59
2022/05/03 04:56:53;;;;;;;;;;;;;;;;;;5035031;28;19928;-59
2022/05/03 04:59:21;;;;;;;;;;;;;;;;;;5033032;28;19921;-59
2022/05/03 05:01:46;;;;;;;;;;;;;;;;;;5034519;28;19928;-58
2022/05/03 05:04:15;;;;;;;;;;;;;;;;;;5034644;28;19917;-59
2022/05/03 05:06:40;;;;;;;;;;;;;;;;;;5033168;28;19928;-59
2022/05/03 05:09:05;;;;;;;;;;;;;;;;;;5009838;28;20336;-59
2022/05/03 05:11:33;;;;;;;;;;;;;;;;;;4979083;28;20754;-58
2022/05/03 05:14:01;;;;;;;;;;;;;;;;;;4994281;28;19917;-59
2022/05/03 05:16:26;;;;;;;;;;;;;;;;;;4996192;28;19925;-59
2022/05/03 05:18:52;;;;;;;;;;;;;;;;;;5013698;28;20411;-59
2022/05/03 05:21:17;;;;;;;;;;;;;;;;;;4996994;28;19921;-59
2022/05/03 05:23:45;;;;;;;;;;;;;;;;;;5014275;28;19925;-59
2022/05/03 05:26:13;;;;;;;;;;;;;;;;;;4996878;28;19934;-59
2022/05/03 05:28:38;;;;;;;;;;;;;;;;;;4996280;28;19925;-58
2022/05/03 05:31:06;;;;;;;;;;;;;;;;;;5011186;28;19951;-59
2022/05/03 05:33:36;;;;;;;;;;;;;;;;;;4994062;28;20387;-59
2022/05/03 05:36:04;;;;;;;;;;;;;;;;;;4994697;28;19924;-59
2022/05/03 05:38:34;;;;;;;;;;;;;;;;;;4996418;28;19925;-58
2022/05/03 05:41:03;;;;;;;;;;;;;;;;;;4993734;28;20371;-59
2022/05/03 05:43:29;;;;;;;;;;;;;;;;;;5011744;28;20770;-59
2022/05/03 05:46:00;;;;;;;;;;;;;;;;;;4996312;28;19963;-59
2022/05/03 05:48:25;;;;;;;;;;;;;;;;;;4993810;28;19947;-59
2022/05/03 05:50:50;;;;;;;;;;;;;;;;;;4979610;28;19917;-59
2022/05/03 05:53:36;;;;;;;;;;;;;;;;;;4995609;28;20052;-59
2022/05/03 05:56:04;;;;;;;;;;;;;;;;;;4995617;28;19920;-59
2022/05/03 05:58:30;;;;;;;;;;;;;;;;;;4995506;28;20800;-59
2022/05/03 06:00:58;;;;;;;;;;;;;;;;;;5012979;28;19932;-59
2022/05/03 06:03:27;;;;;;;;;;;;;;;;;;4995499;28;20032;-59
2022/05/03 06:05:52;;;;;;;;;;;;;;;;;;5012986;28;19921;-59
2022/05/03 06:08:18;;;;;;;;;;;;;;;;;;4995504;28;20033;-59
2022/05/03 06:10:49;;;;;;;;;;;;;;;;;;4983654;28;19929;-59
2022/05/03 06:13:19;;;;;;;;;;;;;;;;;;4980942;28;19925;-58
2022/05/03 06:15:48;;;;;;;;;;;;;;;;;;5017272;28;19921;-59
2022/05/03 06:18:13;;;;;;;;;;;;;;;;;;4996657;28;19967;-59
2022/05/03 06:20:42;;;;;;;;;;;;;;;;;;5016681;28;19944;-58
2022/05/03 06:23:09;;;;;;;;;;;;;;;;;;5015657;28;19917;-59
2022/05/03 06:25:35;;;;;;;;;;;;;;;;;;5001798;28;20292;-61
2022/05/03 06:28:01;;;;;;;;;;;;;;;;;;4993266;28;20343;-59
2022/05/03 06:30:26;;;;;;;;;;;;;;;;;;4982262;28;20004;-59
2022/05/03 06:32:51;;;;;;;;;;;;;;;;;;5015138;28;19916;-60
2022/05/03 06:35:19;;;;;;;;;;;;;;;;;;4983355;28;19927;-60
2022/05/03 06:37:47;;;;;;;;;;;;;;;;;;4999812;28;19948;-60
2022/05/03 06:40:15;;;;;;;;;;;;;;;;;;5002253;28;20372;-60
2022/05/03 06:43:00;;;;;;;;;;;;;;;;;;5022048;28;19921;-60
2022/05/03 06:45:25;;;;;;;;;;;;;;;;;;5020863;28;19927;-61
2022/05/03 06:47:51;;;;;;;;;;;;;;;;;;5018429;28;20534;-60
2022/05/03 06:50:19;;;;;;;;;;;;;;;;;;4995240;28;19970;-60
2022/05/03 06:52:44;;;;;;;;;;;;;;;;;;4984859;28;19917;-61
2022/05/03 06:55:11;;;;;;;;;;;;;;;;;;5020348;28;20280;-60
2022/05/03 06:57:36;;;;;;;;;;;;;;;;;;5022184;28;20728;-61
2022/05/03 07:00:05;;;;;;;;;;;;;;;;;;5018502;28;20003;-60
2022/05/03 07:02:31;;;;;;;;;;;;;;;;;;5021144;28;20277;-61
2022/05/03 07:04:56;;;;;;;;;;;;;;;;;;5021584;28;19917;-60
2022/05/03 07:07:24;;;;;;;;;;;;;;;;;;5002732;28;20019;-60
2022/05/03 07:09:49;;;;;;;;;;;;;;;;;;5011552;28;20306;-60
2022/05/03 07:12:14;;;;;;;;;;;;;;;;;;5018825;28;19917;-60
2022/05/03 07:14:42;;;;;;;;;;;;;;;;;;5000916;28;19932;-60
2022/05/03 07:22:45;;;;;;;;;;;;;;;;;;5007178;28;20054;-61
2022/05/03 07:22:46;;;;;;;;;;;;;;;;;;5017873;28;20035;-60
2022/05/03 07:25:16;;;;;;;;;;;;;;;;;;5016345;28;20568;-60
2022/05/03 07:27:42;;;;;;;;;;;;;;;;;;5015378;28;19916;-60
2022/05/03 07:30:08;;;;;;;;;;;;;;;;;;5033005;28;19931;-60
2022/05/03 07:32:33;;;;;;;;;;;;;;;;;;5034575;28;19921;-59
2022/05/03 07:34:59;;;;;;;;;;;;;;;;;;5034120;28;19917;-60
2022/05/03 07:37:24;;;;;;;;;;;;;;;;;;5032843;28;19932;-60
2022/05/03 07:39:52;;;;;;;;;;;;;;;;;;5033363;28;20303;-59
2022/05/03 07:42:17;;;;;;;;;;;;;;;;;;5035844;28;20023;-60
2022/05/03 07:44:43;;;;;;;;;;;;;;;;;;5033307;28;19991;-63
2022/05/03 07:47:08;;;;;;;;;;;;;;;;;;5000398;28;20576;-61
2022/05/03 07:49:36;;;;;;;;;;;;;;;;;;5014779;28;20435;-60
2022/05/03 07:52:01;;;;;;;;;;;;;;;;;;5015611;28;19928;-60
2022/05/03 07:54:26;;;;;;;;;;;;;;;;;;5015431;28;19921;-59
2022/05/03 07:56:52;;;;;;;;;;;;;;;;;;5016250;28;21779;-59
2022/05/03 07:59:17;;;;;;;;;;;;;;;;;;5033555;28;20343;-60
2022/05/03 08:01:43;;;;;;;;;;;;;;;;;;5014307;28;19956;-60
2022/05/03 08:04:12;;;;;;;;;;;;;;;;;;5016484;28;20023;-60
2022/05/03 08:06:37;;;;;;;;;;;;;;;;;;5034091;28;19917;-60
2022/05/03 08:09:07;;;;;;;;;;;;;;;;;;5033246;28;20027;-60
2022/05/03 08:11:34;;;;;;;;;;;;;;;;;;5034708;28;20519;-60
2022/05/03 08:14:00;;;;;;;;;;;;;;;;;;5031976;28;19921;-60
2022/05/03 08:16:27;;;;;;;;;;;;;;;;;;5011806;28;19924;-61
2022/05/03 08:18:52;;;;;;;;;;;;;;;;;;4994997;28;20383;-61
2022/05/03 08:21:20;;;;;;;;;;;;;;;;;;5033789;28;19916;-61
2022/05/03 08:23:45;;;;;;;;;;;;;;;;;;5011213;28;19967;-60
2022/05/03 08:26:11;;;;;;;;;;;;;;;;;;5014827;28;19920;-63
2022/05/03 08:28:36;;;;;;;;;;;;;;;;;;5014884;28;19925;-60
2022/05/03 08:31:03;;;;;;;;;;;;;;;;;;5034944;28;19992;-61
2022/05/03 08:33:28;;;;;;;;;;;;;;;;;;5014562;28;19916;-60
2022/05/03 08:35:53;;;;;;;;;;;;;;;;;;4996066;28;19959;-61
2022/05/03 08:43:49;;;;;;;;;;;;;;;;;;5032501;28;19925;-59
2022/05/03 08:46:17;;;;;;;;;;;;;;;;;;5033097;28;20048;-60
2022/05/03 08:48:42;;;;;;;;;;;;;;;;;;5011986;28;19927;-60
2022/05/03 08:51:09;;;;;;;;;;;;;;;;;;4998382;28;19971;-60
2022/05/03 08:53:35;;;;;;;;;;;;;;;;;;5032597;28;20332;-60
2022/05/03 08:56:00;;;;;;;;;;;;;;;;;;5015369;28;21417;-60
2022/05/03 08:58:27;;;;;;;;;;;;;;;;;;5032687;28;19925;-60
2022/05/03 09:00:53;;;;;;;;;;;;;;;;;;4997099;28;19936;-60
2022/05/03 09:03:21;;;;;;;;;;;;;;;;;;5031359;28;19921;-60
2022/05/03 09:05:52;;;;;;;;;;;;;;;;;;5011870;28;20375;-60
2022/05/03 09:08:18;;;;;;;;;;;;;;;;;;5010762;28;19925;-60
2022/05/03 09:10:46;;;;;;;;;;;;;;;;;;5013172;28;20039;-59
2022/05/03 09:13:11;;;;;;;;;;;;;;;;;;5034172;28;19922;-60
2022/05/03 09:15:39;;;;;;;;;;;;;;;;;;5013224;28;20403;-59
2022/05/03 09:18:04;;;;;;;;;;;;;;;;;;5033288;28;19925;-60
2022/05/03 09:26:01;;;;;;;;;;;;;;;;;;5031279;28;19921;-59
2022/05/03 09:28:27;;;;;;;;;;;;;;;;;;5013875;28;19924;-61
2022/05/03 09:30:55;;;;;;;;;;;;;;;;;;5033884;28;19917;-61
2022/05/03 09:33:23;;;;;;;;;;;;;;;;;;4995399;28;19917;-61
2022/05/03 09:35:49;;;;;;;;;;;;;;;;;;5033090;28;19921;-60
2022/05/03 09:38:14;;;;;;;;;;;;;;;;;;5013592;28;19936;-61
2022/05/03 09:40:42;;;;;;;;;;;;;;;;;;5034268;28;20000;-61
2022/05/03 09:43:11;;;;;;;;;;;;;;;;;;5012470;28;19923;-61
2022/05/03 09:45:38;;;;;;;;;;;;;;;;;;5011155;28;20546;-61
2022/05/03 09:48:04;;;;;;;;;;;;;;;;;;5031932;28;19917;-61
2022/05/03 09:50:29;;;;;;;;;;;;;;;;;;5013387;28;20006;-61
2022/05/03 09:52:54;;;;;;;;;;;;;;;;;;5013496;28;20489;-63
2022/05/03 09:55:20;;;;;;;;;;;;;;;;;;5032673;28;21056;-62
2022/05/03 09:57:47;;;;;;;;;;;;;;;;;;5031723;28;20487;-60
2022/05/03 10:00:12;;;;;;;;;;;;;;;;;;5033582;28;19974;-61
2022/05/03 10:02:40;;;;;;;;;;;;;;;;;;4995998;28;19959;-61
2022/05/03 10:05:06;;;;;;;;;;;;;;;;;;5011399;28;19916;-61
2022/05/03 10:07:33;;;;;;;;;;;;;;;;;;5011810;28;19948;-62
2022/05/03 10:10:02;;;;;;;;;;;;;;;;;;5033164;28;20382;-61
2022/05/03 10:12:27;;;;;;;;;;;;;;;;;;5032312;28;22038;-61
2022/05/03 10:14:55;;;;;;;;;;;;;;;;;;5034344;28;19970;-61
2022/05/03 10:22:48;;;;;;;;;;;;;;;;;;5017384;28;19923;-61
2022/05/03 10:25:17;;;;;;;;;;;;;;;;;;5037311;28;19916;-62
2022/05/03 10:27:44;;;;;;;;;;;;;;;;;;5035518;28;19920;-61
2022/05/03 10:30:09;;;;;;;;;;;;;;;;;;5015721;28;20913;-62
2022/05/03 10:32:35;;;;;;;;;;;;;;;;;;5018166;28;19917;-62
2022/05/03 10:35:03;;;;;;;;;;;;;;;;;;5036961;28;20062;-61
2022/05/03 10:37:28;;;;;;;;;;;;;;;;;;5033341;28;19925;-61
2022/05/03 10:39:56;;;;;;;;;;;;;;;;;;5036294;28;19948;-62
2022/05/03 10:42:22;;;;;;;;;;;;;;;;;;5016769;28;20053;-60
2022/05/03 10:44:47;;;;;;;;;;;;;;;;;;5036289;28;19920;-61
2022/05/03 10:47:17;;;;;;;;;;;;;;;;;;5013567;28;19925;-62
2022/05/03 10:49:43;;;;;;;;;;;;;;;;;;5035113;28;20319;-61
2022/05/03 10:52:08;;;;;;;;;;;;;;;;;;5035877;28;20522;-61
2022/05/03 10:54:33;;;;;;;;;;;;;;;;;;5034523;28;19931;-61
2022/05/03 10:57:01;;;;;;;;;;;;;;;;;;5016204;28;19921;-61
2022/05/03 10:59:29;;;;;;;;;;;;;;;;;;5014037;28;19927;-63
2022/05/03 11:01:58;;;;;;;;;;;;;;;;;;5016291;28;19921;-63
2022/05/03 11:04:25;;;;;;;;;;;;;;;;;;5034931;28;19921;-61
2022/05/03 11:06:51;;;;;;;;;;;;;;;;;;5037119;28;19974;-61
2022/05/03 11:09:18;;;;;;;;;;;;;;;;;;5012331;28;20272;-61
2022/05/03 11:11:44;;;;;;;;;;;;;;;;;;4998269;28;19936;-61
2022/05/03 11:14:11;;;;;;;;;;;;;;;;;;5016343;28;20307;-61
2022/05/03 11:16:39;;;;;;;;;;;;;;;;;;4982030;28;20084;-61
2022/05/03 11:19:09;;;;;;;;;;;;;;;;;;4996740;28;19936;-62
2022/05/03 11:21:34;;;;;;;;;;;;;;;;;;4998194;28;20055;-61
2022/05/03 11:23:59;;;;;;;;;;;;;;;;;;4997399;28;19925;-61
2022/05/03 11:26:24;;;;;;;;;;;;;;;;;;4997227;28;19917;-60
2022/05/03 11:28:50;;;;;;;;;;;;;;;;;;4997413;28;20035;-61
2022/05/03 11:31:15;;;;;;;;;;;;;;;;;;4982484;28;19931;-61
2022/05/03 11:33:41;;;;;;;;;;;;;;;;;;5016203;28;19935;-61
2022/05/03 11:36:06;;;;;;;;;;;;;;;;;;5014302;28;20173;-61
2022/05/03 11:38:34;;;;;;;;;;;;;;;;;;4996384;28;20016;-61
2022/05/03 11:40:59;;;;;;;;;;;;;;;;;;4998087;28;19921;-61
2022/05/03 11:43:27;;;;;;;;;;;;;;;;;;4998045;28;19929;-61
2022/05/03 11:45:53;;;;;;;;;;;;;;;;;;5015214;28;19924;-60
2022/05/03 11:48:23;;;;;;;;;;;;;;;;;;4998089;28;20745;-61
2022/05/03 11:56:19;;;;;;;;;;;;;;;;;;5015504;28;19921;-62
2022/05/03 11:58:47;;;;;;;;;;;;;;;;;;4996967;28;19947;-62
2022/05/03 12:01:12;;;;;;;;;;;;;;;;;;5015658;28;20496;-61
2022/05/03 12:03:37;;;;;;;;;;;;;;;;;;4995196;28;20004;-62
2022/05/03 12:06:03;;;;;;;;;;;;;;;;;;4997032;28;19921;-60
2022/05/03 12:08:30;;;;;;;;;;;;;;;;;;4978109;28;19925;-60
2022/05/03 12:10:59;;;;;;;;;;;;;;;;;;5016802;28;19971;-60
2022/05/03 12:13:25;;;;;;;;;;;;;;;;;;5019192;28;19968;-59
2022/05/03 12:15:50;;;;;;;;;;;;;;;;;;5018081;28;20404;-60
2022/05/03 12:18:18;;;;;;;;;;;;;;;;;;5017888;28;20308;-60
2022/05/03 12:20:43;;;;;;;;;;;;;;;;;;5017679;28;19921;-60
2022/05/03 12:23:13;;;;;;;;;;;;;;;;;;5002202;28;19945;-59
2022/05/03 12:25:42;;;;;;;;;;;;;;;;;;5018314;28;19920;-60
2022/05/03 12:28:10;;;;;;;;;;;;;;;;;;4997911;28;19925;-60
2022/05/03 12:30:35;;;;;;;;;;;;;;;;;;4994890;28;20032;-60
2022/05/03 12:33:01;;;;;;;;;;;;;;;;;;4999088;28;19936;-61
2022/05/03 12:35:27;;;;;;;;;;;;;;;;;;4999569;28;19921;-61
2022/05/03 12:37:54;;;;;;;;;;;;;;;;;;4999193;28;20051;-60
2022/05/03 12:40:20;;;;;;;;;;;;;;;;;;5017287;28;19925;-62
2022/05/03 12:42:48;;;;;;;;;;;;;;;;;;5016057;28;20581;-61
2022/05/03 12:45:14;;;;;;;;;;;;;;;;;;5016798;28;19917;-61
2022/05/03 12:47:40;;;;;;;;;;;;;;;;;;4983633;28;19946;-62
2022/05/03 12:50:05;;;;;;;;;;;;;;;;;;4992834;28;20406;-60
2022/05/03 12:52:30;;;;;;;;;;;;;;;;;;5000108;28;19921;-61
2022/05/03 12:54:59;;;;;;;;;;;;;;;;;;5018574;28;20141;-60
2022/05/03 13:00:14;;;;;;;;;;;;;;;;;;5016984;28;19917;-61
2022/05/03 13:02:39;;;;;;;;;;;;;;;;;;5004887;28;19931;-61
2022/05/03 13:05:05;;;;;;;;;;;;;;;;;;4983446;28;19916;-61
2022/05/03 13:07:30;;;;;;;;;;;;;;;;;;5008460;28;19926;-61
2022/05/03 13:09:58;;;;;;;;;;;;;;;;;;5026501;28;19928;-63
2022/05/03 13:12:23;;;;;;;;;;;;;;;;;;5008540;28;20299;-60
2022/05/03 13:14:48;;;;;;;;;;;;;;;;;;5033510;28;20748;-61
2022/05/03 13:17:19;;;;;;;;;;;;;;;;;;5007854;28;19925;-61
2022/05/03 13:19:47;;;;;;;;;;;;;;;;;;5033022;28;19924;-61
2022/05/03 13:22:12;;;;;;;;;;;;;;;;;;5034496;28;19924;-61
2022/05/03 13:24:37;;;;;;;;;;;;;;;;;;5033533;28;20658;-62
2022/05/03 13:27:03;;;;;;;;;;;;;;;;;;5013511;28;19931;-61
2022/05/03 13:29:31;;;;;;;;;;;;;;;;;;4994689;28;20389;-62
2022/05/03 13:31:57;;;;;;;;;;;;;;;;;;5012688;28;19921;-61
2022/05/03 13:34:27;;;;;;;;;;;;;;;;;;5033294;28;19956;-61
2022/05/03 13:42:24;;;;;;;;;;;;;;;;;;5033164;28;19921;-61
2022/05/03 13:44:49;;;;;;;;;;;;;;;;;;5013353;28;19927;-61
2022/05/03 13:47:14;;;;;;;;;;;;;;;;;;5032744;28;19924;-62
2022/05/03 13:49:44;;;;;;;;;;;;;;;;;;4997487;28;19924;-60
2022/05/03 13:52:12;;;;;;;;;;;;;;;;;;5033902;28;19966;-61
2022/05/03 13:54:37;;;;;;;;;;;;;;;;;;4995869;28;20007;-62
2022/05/03 13:57:05;;;;;;;;;;;;;;;;;;5014784;28;19916;-61
2022/05/03 13:59:33;;;;;;;;;;;;;;;;;;5013556;28;19928;-61
2022/05/03 14:02:01;;;;;;;;;;;;;;;;;;5032674;28;20402;-63
2022/05/03 14:04:32;;;;;;;;;;;;;;;;;;5012432;28;20003;-61
2022/05/03 14:06:57;;;;;;;;;;;;;;;;;;5031711;28;20016;-61
2022/05/03 14:09:22;;;;;;;;;;;;;;;;;;5005780;28;19931;-61
2022/05/03 14:11:52;;;;;;;;;;;;;;;;;;5011826;28;19921;-61
2022/05/03 14:14:20;;;;;;;;;;;;;;;;;;5012001;28;20749;-61
2022/05/03 14:16:47;;;;;;;;;;;;;;;;;;5010738;28;19936;-61
2022/05/03 14:19:13;;;;;;;;;;;;;;;;;;5012930;28;19925;-61
2022/05/03 14:21:40;;;;;;;;;;;;;;;;;;4994586;28;20007;-62
2022/05/03 14:24:07;;;;;;;;;;;;;;;;;;4986711;28;20304;-61
2022/05/03 14:26:35;;;;;;;;;;;;;;;;;;5010308;28;19924;-62
2022/05/03 14:29:01;;;;;;;;;;;;;;;;;;5011920;28;20244;-62
2022/05/03 14:31:28;;;;;;;;;;;;;;;;;;4995040;28;20892;-61
2022/05/03 14:33:56;;;;;;;;;;;;;;;;;;5012988;28;19921;-61
2022/05/03 14:36:22;;;;;;;;;;;;;;;;;;4977693;28;19995;-62
2022/05/03 14:38:47;;;;;;;;;;;;;;;;;;4994875;28;19956;-61
2022/05/03 14:41:15;;;;;;;;;;;;;;;;;;5013742;28;19932;-61
2022/05/03 14:43:43;;;;;;;;;;;;;;;;;;5014170;28;19921;-62
2022/05/03 14:46:12;;;;;;;;;;;;;;;;;;4995945;28;20743;-61
2022/05/03 14:48:39;;;;;;;;;;;;;;;;;;5012184;28;20550;-61
2022/05/03 14:51:05;;;;;;;;;;;;;;;;;;5013790;28;19929;-62
2022/05/03 14:53:33;;;;;;;;;;;;;;;;;;4995806;28;20000;-60
2022/05/03 15:04:16;;;;;;;;;;;;;;;;;;5015834;28;20016;-60
2022/05/03 15:06:44;;;;;;;;;;;;;;;;;;5016267;28;22077;-61
2022/05/03 15:09:09;;;;;;;;;;;;;;;;;;5000326;28;20007;-60
2022/05/03 15:11:35;;;;;;;;;;;;;;;;;;5035525;28;20610;-61
2022/05/03 15:14:00;;;;;;;;;;;;;;;;;;5015444;28;19921;-61
2022/05/03 15:16:26;;;;;;;;;;;;;;;;;;5015755;28;19931;-60
2022/05/03 15:18:51;;;;;;;;;;;;;;;;;;5014506;28;19924;-61
2022/05/03 15:21:17;;;;;;;;;;;;;;;;;;5036132;28;20039;-60
2022/05/03 15:26:26;;;;;;;;;;;;;;;;;;5005078;28;20268;-60
2022/05/03 15:28:52;;;;;;;;;;;;;;;;;;5014799;28;19920;-60
2022/05/03 15:31:18;;;;;;;;;;;;;;;;;;5034839;28;19928;-61
2022/05/03 15:33:46;;;;;;;;;;;;;;;;;;5017496;28;19921;-61
2022/05/03 15:36:11;;;;;;;;;;;;;;;;;;5033523;28;19923;-59
2022/05/03 15:38:39;;;;;;;;;;;;;;;;;;5035481;28;20019;-60
2022/05/03 15:41:04;;;;;;;;;;;;;;;;;;5015121;28;19921;-61
2022/05/03 15:43:33;;;;;;;;;;;;;;;;;;5016229;28;21836;-60
2022/05/03 15:46:00;;;;;;;;;;;;;;;;;;4998654;28;20019;-60
2022/05/03 15:48:26;;;;;;;;;;;;;;;;;;5034844;28;19928;-60
2022/05/03 15:50:56;;;;;;;;;;;;;;;;;;5034572;28;19923;-60
2022/05/03 15:53:24;;;;;;;;;;;;;;;;;;5013772;28;19925;-60
2022/05/03 15:55:49;;;;;;;;;;;;;;;;;;5035294;28;19971;-60
2022/05/03 15:58:14;;;;;;;;;;;;;;;;;;5035254;28;19913;-59
2022/05/03 16:00:44;;;;;;;;;;;;;;;;;;5035471;28;19932;-60
2022/05/03 16:03:10;;;;;;;;;;;;;;;;;;5034652;28;20320;-59
2022/05/03 16:05:36;;;;;;;;;;;;;;;;;;5036656;28;19999;-62
2022/05/03 16:08:01;;;;;;;;;;;;;;;;;;5031186;28;21563;-61
2022/05/03 16:10:27;;;;;;;;;;;;;;;;;;5034568;28;19980;-61
2022/05/03 16:12:55;;;;;;;;;;;;;;;;;;5014275;28;20005;-61
2022/05/03 16:15:22;;;;;;;;;;;;;;;;;;5012378;28;19921;-60
2022/05/03 16:17:48;;;;;;;;;;;;;;;;;;5032876;28;19955;-61
2022/05/03 16:20:16;;;;;;;;;;;;;;;;;;5013514;28;20052;-59
2022/05/03 16:22:41;;;;;;;;;;;;;;;;;;5034451;28;19923;-60
2022/05/03 16:25:12;;;;;;;;;;;;;;;;;;5032673;28;19936;-60
2022/05/03 16:27:40;;;;;;;;;;;;;;;;;;5014454;28;20028;-60
2022/05/03 16:30:06;;;;;;;;;;;;;;;;;;5034834;28;19920;-60
2022/05/03 16:32:33;;;;;;;;;;;;;;;;;;5034274;28;19925;-60
2022/05/03 16:35:01;;;;;;;;;;;;;;;;;;5035119;28;19917;-60
2022/05/03 16:42:56;;;;;;;;;;;;;;;;;;5035345;28;20058;-60
2022/05/03 16:45:22;;;;;;;;;;;;;;;;;;5032390;28;19924;-59
2022/05/03 16:47:48;;;;;;;;;;;;;;;;;;5013951;28;20024;-60
2022/05/03 16:50:17;;;;;;;;;;;;;;;;;;4998082;28;20487;-60
2022/05/03 16:52:43;;;;;;;;;;;;;;;;;;5014027;28;19921;-60
2022/05/03 16:55:08;;;;;;;;;;;;;;;;;;4987878;28;19959;-60
2022/05/03 16:57:37;;;;;;;;;;;;;;;;;;5033121;28;19917;-60
2022/05/03 17:00:02;;;;;;;;;;;;;;;;;;5013812;28;20759;-60
2022/05/03 17:02:30;;;;;;;;;;;;;;;;;;5033781;28;19924;-59
2022/05/03 17:04:55;;;;;;;;;;;;;;;;;;5032200;28;19964;-60
2022/05/03 17:07:20;;;;;;;;;;;;;;;;;;4998259;28;19924;-60
2022/05/03 17:09:48;;;;;;;;;;;;;;;;;;5033560;28;19925;-58
2022/05/03 17:12:15;;;;;;;;;;;;;;;;;;5014011;28;20362;-58
2022/05/03 17:14:45;;;;;;;;;;;;;;;;;;5011473;28;21984;-60
2022/05/03 17:17:11;;;;;;;;;;;;;;;;;;5010018;28;19931;-60
2022/05/03 17:19:37;;;;;;;;;;;;;;;;;;5013783;28;19921;-60
2022/05/03 17:22:06;;;;;;;;;;;;;;;;;;5031984;28;19927;-59
2022/05/03 17:24:31;;;;;;;;;;;;;;;;;;5012190;28;19943;-60
2022/05/03 17:26:56;;;;;;;;;;;;;;;;;;5033489;28;19924;-60
2022/05/03 17:29:21;;;;;;;;;;;;;;;;;;5017694;28;19925;-60
2022/05/03 17:31:47;;;;;;;;;;;;;;;;;;5013489;28;20007;-59
2022/05/03 17:34:13;;;;;;;;;;;;;;;;;;4997810;28;19924;-58